createdAt,value
2018-11-26T00:00:24.059Z,87.30
2018-11-26T00:02:52.589Z,87.30
2018-11-26T00:05:21.100Z,87.30
2018-11-26T00:07:49.791Z,87.30
2018-11-26T00:10:29.682Z,87.30
2018-11-26T00:12:58.179Z,87.20
2018-11-26T00:15:26.663Z,87.20
2018-11-26T00:17:55.155Z,87.20
2018-11-26T00:20:23.679Z,87.20
2018-11-26T00:22:52.183Z,87.20
2018-11-26T00:25:20.680Z,87.20
2018-11-26T00:27:49.211Z,87.20
2018-11-26T00:30:17.731Z,87.20
2018-11-26T00:32:46.211Z,87.20
2018-11-26T00:35:14.760Z,87.20
2018-11-26T00:37:43.243Z,87.20
2018-11-26T00:40:11.903Z,87.20
2018-11-26T00:42:40.387Z,87.20
2018-11-26T00:45:11.383Z,87.30
2018-11-26T00:47:39.903Z,87.30
2018-11-26T00:50:09.699Z,87.30
2018-11-26T00:52:38.999Z,87.30
2018-11-26T00:55:09.054Z,87.30
2018-11-26T00:57:37.614Z,87.30
2018-11-26T01:00:09.427Z,87.20
2018-11-26T01:02:38.290Z,87.20
2018-11-26T01:05:07.763Z,87.20
2018-11-26T01:07:36.602Z,87.20
2018-11-26T01:10:05.151Z,87.20
2018-11-26T01:12:33.630Z,87.20
2018-11-26T01:15:02.151Z,87.20
2018-11-26T01:17:30.678Z,87.20
2018-11-26T01:19:59.174Z,87.30
2018-11-26T01:22:27.691Z,87.20
2018-11-26T01:24:56.179Z,87.20
2018-11-26T01:27:24.698Z,87.20
2018-11-26T01:29:53.182Z,87.20
2018-11-26T01:32:21.704Z,87.20
2018-11-26T01:34:50.238Z,87.20
2018-11-26T01:37:18.760Z,87.20
2018-11-26T01:39:47.290Z,87.20
2018-11-26T01:42:15.799Z,87.20
2018-11-26T01:44:44.327Z,87.20
2018-11-26T01:47:12.814Z,87.20
2018-11-26T01:49:41.326Z,87.20
2018-11-26T01:52:09.830Z,87.20
2018-11-26T01:54:39.070Z,87.20
2018-11-26T01:57:07.609Z,87.20
2018-11-26T01:59:36.114Z,87.30
2018-11-26T02:02:04.638Z,87.30
2018-11-26T02:04:33.126Z,87.30
2018-11-26T02:07:01.638Z,87.30
2018-11-26T02:09:30.121Z,87.20
2018-11-26T02:11:58.625Z,87.20
2018-11-26T02:14:27.145Z,87.20
2018-11-26T02:16:55.629Z,87.20
2018-11-26T02:19:24.165Z,87.20
2018-11-26T02:21:52.702Z,87.10
2018-11-26T02:24:21.261Z,87.10
2018-11-26T02:26:49.773Z,87.20
2018-11-26T02:29:18.318Z,87.10
2018-11-26T02:31:46.830Z,87.10
2018-11-26T02:34:15.304Z,87.10
2018-11-26T02:36:43.809Z,87.10
2018-11-26T02:39:12.309Z,87.10
2018-11-26T02:41:40.801Z,87.10
2018-11-26T02:44:09.281Z,87.10
2018-11-26T02:46:37.801Z,87.10
2018-11-26T02:49:06.390Z,87.10
2018-11-26T02:51:34.874Z,87.10
2018-11-26T02:54:03.357Z,87.10
2018-11-26T02:56:31.931Z,87.10
2018-11-26T02:59:00.441Z,87.00
2018-11-26T03:01:29.181Z,87.00
2018-11-26T03:03:57.672Z,86.90
2018-11-26T03:06:26.180Z,86.90
2018-11-26T03:08:54.692Z,86.80
2018-11-26T03:11:23.241Z,87.00
2018-11-26T03:13:51.737Z,87.00
2018-11-26T03:16:20.512Z,87.00
2018-11-26T03:18:49.005Z,86.90
2018-11-26T03:21:17.639Z,86.90
2018-11-26T03:23:46.165Z,86.80
2018-11-26T03:26:14.672Z,86.80
2018-11-26T03:28:43.253Z,86.80
2018-11-26T03:31:11.757Z,86.80
2018-11-26T03:33:40.281Z,86.90
2018-11-26T03:36:08.765Z,86.80
2018-11-26T03:38:49.470Z,86.80
2018-11-26T03:41:18.084Z,86.80
2018-11-26T03:43:46.644Z,86.80
2018-11-26T03:46:15.162Z,86.80
2018-11-26T03:48:43.656Z,86.80
2018-11-26T03:51:12.176Z,86.90
2018-11-26T03:53:40.678Z,86.80
2018-11-26T03:56:09.185Z,86.90
2018-11-26T03:58:38.208Z,86.90
2018-11-26T04:01:07.172Z,86.90
2018-11-26T04:03:35.655Z,86.80
2018-11-26T04:06:04.424Z,86.80
2018-11-26T04:08:32.901Z,86.80
2018-11-26T04:11:01.524Z,86.90
2018-11-26T04:13:30.292Z,86.90
2018-11-26T04:15:58.833Z,87.00
2018-11-26T04:18:27.391Z,87.00
2018-11-26T04:20:55.863Z,87.00
2018-11-26T04:23:24.367Z,87.00
2018-11-26T04:25:52.899Z,87.00
2018-11-26T04:28:21.408Z,87.10
2018-11-26T04:30:49.903Z,87.10
2018-11-26T04:33:18.444Z,87.00
2018-11-26T04:35:46.947Z,87.10
2018-11-26T04:38:15.508Z,87.20
2018-11-26T04:40:44.108Z,87.30
2018-11-26T04:43:12.579Z,87.40
2018-11-26T04:45:41.091Z,87.50
2018-11-26T04:48:09.692Z,87.40
2018-11-26T04:50:38.191Z,88.30
2018-11-26T04:53:06.735Z,87.60
2018-11-26T04:55:35.250Z,87.70
2018-11-26T04:58:03.748Z,87.70
2018-11-26T05:00:32.259Z,87.70
2018-11-26T05:03:00.799Z,87.70
2018-11-26T05:05:29.311Z,87.70
2018-11-26T05:07:57.782Z,87.70
2018-11-26T05:10:26.334Z,87.60
2018-11-26T05:12:54.847Z,87.60
2018-11-26T05:15:23.350Z,87.60
2018-11-26T05:17:51.940Z,87.70
2018-11-26T05:20:20.453Z,87.70
2018-11-26T05:22:48.975Z,87.70
2018-11-26T05:25:17.539Z,87.70
2018-11-26T05:27:46.050Z,87.70
2018-11-26T05:30:14.582Z,87.70
2018-11-26T05:32:43.142Z,87.70
2018-11-26T05:35:12.686Z,87.80
2018-11-26T05:37:41.224Z,87.70
2018-11-26T05:40:12.482Z,87.70
2018-11-26T05:42:41.234Z,87.70
2018-11-26T05:45:12.110Z,87.70
2018-11-26T05:47:40.591Z,87.60
2018-11-26T05:50:10.478Z,87.60
2018-11-26T05:52:39.620Z,87.70
2018-11-26T05:55:10.138Z,87.60
2018-11-26T05:57:38.665Z,87.60
2018-11-26T06:00:12.385Z,87.50
2018-11-26T06:02:40.865Z,87.50
2018-11-26T06:05:09.711Z,87.50
2018-11-26T06:07:38.198Z,87.50
2018-11-26T06:10:08.167Z,87.40
2018-11-26T06:12:36.697Z,87.40
2018-11-26T06:15:07.381Z,87.40
2018-11-26T06:17:35.937Z,87.30
2018-11-26T06:20:05.090Z,87.30
2018-11-26T06:22:33.590Z,87.40
2018-11-26T06:25:02.122Z,87.30
2018-11-26T06:27:30.597Z,87.30
2018-11-26T06:29:59.101Z,87.30
2018-11-26T06:32:27.582Z,87.30
2018-11-26T06:34:56.090Z,87.30
2018-11-26T06:37:24.565Z,87.30
2018-11-26T06:39:53.049Z,87.30
2018-11-26T06:42:21.529Z,87.20
2018-11-26T06:44:49.993Z,87.20
2018-11-26T06:47:18.509Z,87.20
2018-11-26T06:49:47.089Z,87.10
2018-11-26T06:52:15.585Z,87.10
2018-11-26T06:54:44.073Z,87.10
2018-11-26T06:57:12.541Z,87.10
2018-11-26T06:59:41.042Z,87.00
2018-11-26T07:02:09.517Z,87.00
2018-11-26T07:04:38.005Z,87.00
2018-11-26T07:07:06.549Z,87.00
2018-11-26T07:09:35.045Z,87.00
2018-11-26T07:12:03.537Z,87.00
2018-11-26T07:14:32.022Z,86.60
2018-11-26T07:17:00.513Z,86.90
2018-11-26T07:19:29.005Z,86.80
2018-11-26T07:21:57.509Z,86.80
2018-11-26T07:24:27.717Z,86.80
2018-11-26T07:26:56.316Z,86.80
2018-11-26T07:29:24.924Z,86.80
2018-11-26T07:31:53.408Z,86.90
2018-11-26T07:34:21.884Z,86.90
2018-11-26T07:36:50.389Z,86.90
2018-11-26T07:39:18.876Z,86.90
2018-11-26T07:41:47.372Z,86.90
2018-11-26T07:44:15.869Z,86.90
2018-11-26T07:46:44.345Z,86.90
2018-11-26T07:49:12.872Z,87.00
2018-11-26T07:51:41.384Z,87.00
2018-11-26T07:54:09.876Z,87.00
2018-11-26T07:56:38.384Z,87.00
2018-11-26T07:59:06.876Z,87.00
2018-11-26T08:01:35.356Z,87.00
2018-11-26T08:04:03.872Z,87.00
2018-11-26T08:06:32.344Z,87.00
2018-11-26T08:09:00.836Z,87.00
2018-11-26T08:11:29.327Z,86.90
2018-11-26T08:13:57.823Z,86.90
2018-11-26T08:16:26.311Z,86.90
2018-11-26T08:18:54.787Z,86.80
2018-11-26T08:21:23.275Z,86.90
2018-11-26T08:23:51.768Z,86.90
2018-11-26T08:26:20.259Z,86.80
2018-11-26T08:28:48.753Z,86.80
2018-11-26T08:31:17.259Z,86.70
2018-11-26T08:33:45.755Z,86.70
2018-11-26T08:36:14.702Z,86.60
2018-11-26T08:38:46.687Z,86.70
2018-11-26T08:41:16.267Z,86.60
2018-11-26T08:43:49.484Z,86.50
2018-11-26T08:46:37.300Z,86.40
2018-11-26T08:49:11.403Z,86.30
2018-11-26T08:51:40.375Z,86.20
2018-11-26T08:54:08.871Z,86.20
2018-11-26T08:56:37.359Z,86.10
2018-11-26T08:59:06.027Z,86.10
2018-11-26T09:01:35.234Z,86.10
2018-11-26T09:04:05.214Z,86.00
2018-11-26T09:06:33.693Z,86.00
2018-11-26T09:09:02.210Z,86.00
2018-11-26T09:11:30.690Z,86.20
2018-11-26T09:13:59.187Z,86.00
2018-11-26T09:16:27.662Z,85.90
2018-11-26T09:18:56.167Z,85.90
2018-11-26T09:21:24.691Z,85.80
2018-11-26T09:23:53.194Z,85.70
2018-11-26T09:26:21.687Z,85.70
2018-11-26T09:28:50.168Z,86.40
2018-11-26T09:31:18.826Z,85.50
2018-11-26T09:33:47.346Z,85.30
2018-11-26T09:36:15.842Z,85.20
2018-11-26T09:38:44.339Z,85.00
2018-11-26T09:41:12.885Z,84.90
2018-11-26T09:43:41.438Z,84.00
2018-11-26T09:46:10.634Z,84.40
2018-11-26T09:48:39.130Z,84.40
2018-11-26T09:51:14.007Z,84.30
2018-11-26T09:53:36.245Z,84.20
2018-11-26T09:56:04.799Z,84.10
2018-11-26T09:58:33.301Z,84.00
2018-11-26T10:01:01.834Z,83.90
2018-11-26T10:03:30.358Z,83.80
2018-11-26T10:05:58.863Z,83.70
2018-11-26T10:08:27.381Z,83.60
2018-11-26T10:10:55.872Z,83.50
2018-11-26T10:13:24.381Z,83.40
2018-11-26T10:15:52.877Z,83.30
2018-11-26T10:18:21.390Z,83.10
2018-11-26T10:20:49.913Z,83.10
2018-11-26T10:23:18.433Z,83.00
2018-11-26T10:25:46.913Z,82.80
2018-11-26T10:28:16.081Z,82.70
2018-11-26T10:30:44.585Z,82.60
2018-11-26T10:33:14.964Z,82.60
2018-11-26T10:35:42.425Z,82.40
2018-11-26T10:38:10.952Z,82.30
2018-11-26T10:40:39.413Z,82.10
2018-11-26T10:43:11.700Z,82.00
2018-11-26T10:45:36.697Z,82.00
2018-11-26T10:48:06.165Z,82.00
2018-11-26T10:50:34.780Z,81.90
2018-11-26T10:53:03.596Z,81.80
2018-11-26T10:55:33.287Z,81.60
2018-11-26T10:58:01.946Z,81.40
2018-11-26T11:00:35.722Z,81.20
2018-11-26T11:03:04.349Z,80.90
2018-11-26T11:05:32.941Z,80.60
2018-11-26T11:08:01.468Z,80.40
2018-11-26T11:10:32.117Z,80.20
2018-11-26T11:13:00.660Z,80.00
2018-11-26T11:15:29.512Z,79.80
2018-11-26T11:17:58.052Z,79.70
2018-11-26T11:20:27.845Z,79.60
2018-11-26T11:22:56.424Z,79.40
2018-11-26T11:25:25.046Z,79.30
2018-11-26T11:27:53.582Z,79.10
2018-11-26T11:30:25.691Z,79.00
2018-11-26T11:32:54.220Z,78.80
2018-11-26T11:35:22.743Z,78.60
2018-11-26T11:37:52.166Z,78.60
2018-11-26T11:40:23.790Z,78.40
2018-11-26T11:42:52.654Z,78.30
2018-11-26T11:45:21.623Z,77.90
2018-11-26T11:47:50.163Z,77.60
2018-11-26T11:50:19.547Z,77.00
2018-11-26T11:52:48.410Z,76.90
2018-11-26T11:55:19.803Z,76.80
2018-11-26T11:57:48.313Z,76.80
2018-11-26T12:00:35.145Z,76.70
2018-11-26T12:03:11.641Z,76.60
2018-11-26T12:05:40.146Z,76.30
2018-11-26T12:08:08.962Z,76.00
2018-11-26T12:10:37.458Z,75.80
2018-11-26T12:13:07.198Z,75.70
2018-11-26T12:15:36.566Z,75.60
2018-11-26T12:18:05.698Z,75.10
2018-11-26T12:20:34.198Z,74.30
2018-11-26T12:23:02.666Z,73.00
2018-11-26T12:25:31.147Z,71.90
2018-11-26T12:27:59.601Z,71.20
2018-11-26T12:30:30.250Z,70.50
2018-11-26T12:32:58.844Z,69.80
2018-11-26T12:35:27.358Z,69.30
2018-11-26T12:37:55.841Z,68.80
2018-11-26T12:40:26.057Z,68.40
2018-11-26T12:42:55.729Z,68.40
2018-11-26T12:45:26.250Z,68.80
2018-11-26T12:47:54.767Z,69.20
2018-11-26T12:50:23.271Z,69.30
2018-11-26T12:52:51.805Z,69.10
2018-11-26T12:55:21.339Z,68.80
2018-11-26T12:57:50.177Z,68.60
2018-11-26T13:00:21.657Z,68.30
2018-11-26T13:02:52.298Z,68.20
2018-11-26T13:05:20.951Z,68.10
2018-11-26T13:07:49.604Z,68.00
2018-11-26T13:10:19.570Z,68.20
2018-11-26T13:12:48.657Z,68.50
2018-11-26T13:15:18.182Z,69.00
2018-11-26T13:17:46.868Z,69.50
2018-11-26T13:20:24.877Z,69.90
2018-11-26T13:22:53.817Z,70.30
2018-11-26T13:25:24.569Z,70.70
2018-11-26T13:27:54.162Z,71.00
2018-11-26T13:30:26.857Z,71.20
2018-11-26T13:32:57.661Z,71.30
2018-11-26T13:35:26.165Z,71.40
2018-11-26T13:37:54.690Z,71.50
2018-11-26T13:40:23.305Z,71.70
2018-11-26T13:42:52.025Z,71.90
2018-11-26T13:45:25.865Z,72.00
2018-11-26T13:47:54.541Z,72.20
2018-11-26T13:50:27.081Z,72.40
2018-11-26T13:52:55.833Z,72.50
2018-11-26T13:55:24.317Z,72.60
2018-11-26T13:57:53.088Z,72.80
2018-11-26T14:00:21.617Z,73.00
2018-11-26T14:02:50.102Z,73.00
2018-11-26T14:05:19.369Z,73.10
2018-11-26T14:07:48.185Z,73.20
2018-11-26T14:10:19.589Z,73.30
2018-11-26T14:12:49.861Z,73.40
2018-11-26T14:15:18.501Z,73.60
2018-11-26T14:17:47.017Z,73.70
2018-11-26T14:20:16.317Z,73.80
2018-11-26T14:22:44.841Z,74.00
2018-11-26T14:25:17.116Z,74.10
2018-11-26T14:27:46.027Z,74.20
2018-11-26T14:30:15.861Z,74.40
2018-11-26T14:32:44.353Z,74.40
2018-11-26T14:35:12.857Z,74.60
2018-11-26T14:37:41.508Z,74.70
2018-11-26T14:40:12.621Z,74.80
2018-11-26T14:42:41.114Z,74.90
2018-11-26T14:45:11.437Z,75.10
2018-11-26T14:47:39.989Z,75.20
2018-11-26T14:50:11.997Z,75.40
2018-11-26T14:52:40.957Z,75.40
2018-11-26T14:55:14.891Z,75.40
2018-11-26T14:57:43.413Z,75.60
2018-11-26T15:00:14.324Z,75.70
2018-11-26T15:02:43.693Z,75.80
2018-11-26T15:05:11.596Z,75.80
2018-11-26T15:07:40.131Z,76.10
2018-11-26T15:10:12.810Z,76.10
2018-11-26T15:12:41.436Z,76.20
2018-11-26T15:15:12.076Z,76.30
2018-11-26T15:17:41.228Z,76.40
2018-11-26T15:20:13.924Z,76.50
2018-11-26T15:22:42.472Z,76.60
2018-11-26T15:25:13.004Z,76.60
2018-11-26T15:27:41.560Z,76.80
2018-11-26T15:32:44.348Z,76.90
2018-11-26T15:35:14.020Z,78.00
2018-11-26T15:37:42.587Z,77.30
2018-11-26T15:40:12.100Z,77.40
2018-11-26T15:42:40.625Z,77.30
2018-11-26T15:45:18.372Z,77.80
2018-11-26T15:47:47.062Z,77.50
2018-11-26T15:50:15.671Z,77.50
2018-11-26T15:52:44.208Z,77.60
2018-11-26T15:55:13.920Z,77.70
2018-11-26T15:57:42.507Z,77.70
2018-11-26T16:00:15.860Z,77.80
2018-11-26T16:02:44.431Z,77.90
2018-11-26T16:05:16.316Z,78.00
2018-11-26T16:07:45.186Z,78.40
2018-11-26T16:10:14.403Z,78.00
2018-11-26T16:12:43.691Z,78.00
2018-11-26T16:15:13.755Z,78.10
2018-11-26T16:17:42.351Z,78.20
2018-11-26T16:20:12.487Z,78.20
2018-11-26T16:22:40.993Z,78.10
2018-11-26T16:25:11.484Z,79.00
2018-11-26T16:27:39.967Z,78.30
2018-11-26T16:30:11.986Z,78.50
2018-11-26T16:32:40.631Z,78.50
2018-11-26T16:35:14.703Z,78.50
2018-11-26T16:37:43.195Z,78.60
2018-11-26T16:40:13.207Z,78.70
2018-11-26T16:42:41.723Z,78.70
2018-11-26T16:45:12.958Z,78.70
2018-11-26T16:47:41.454Z,78.80
2018-11-26T16:50:11.359Z,78.90
2018-11-26T16:52:39.911Z,79.00
2018-11-26T16:55:09.887Z,79.00
2018-11-26T16:57:38.430Z,79.00
2018-11-26T17:00:13.802Z,79.10
2018-11-26T17:02:42.330Z,79.20
2018-11-26T17:05:15.475Z,79.20
2018-11-26T17:07:44.047Z,79.20
2018-11-26T17:10:12.595Z,79.20
2018-11-26T17:12:41.290Z,79.20
2018-11-26T17:15:14.034Z,79.40
2018-11-26T17:17:42.558Z,79.30
2018-11-26T17:20:13.950Z,79.30
2018-11-26T17:22:42.651Z,79.40
2018-11-26T17:25:13.010Z,79.40
2018-11-26T17:27:42.113Z,79.50
2018-11-26T17:30:14.958Z,79.50
2018-11-26T17:32:43.454Z,79.60
2018-11-26T17:35:13.099Z,79.60
2018-11-26T17:37:42.972Z,79.60
2018-11-26T17:40:11.846Z,79.60
2018-11-26T17:42:40.350Z,79.60
2018-11-26T17:45:11.273Z,79.60
2018-11-26T17:47:40.246Z,79.70
2018-11-26T17:50:14.582Z,79.80
2018-11-26T17:52:43.166Z,79.80
2018-11-26T17:55:11.691Z,79.80
2018-11-26T17:57:40.186Z,79.80
2018-11-26T18:00:11.338Z,79.90
2018-11-26T18:02:39.878Z,79.90
2018-11-26T18:05:12.257Z,79.90
2018-11-26T18:07:40.786Z,79.90
2018-11-26T18:10:11.326Z,79.90
2018-11-26T18:12:39.870Z,80.10
2018-11-26T18:15:11.482Z,80.00
2018-11-26T18:17:40.031Z,80.00
2018-11-26T18:20:11.353Z,80.00
2018-11-26T18:22:39.869Z,80.00
2018-11-26T18:25:09.753Z,80.00
2018-11-26T18:27:39.436Z,80.10
2018-11-26T18:30:12.511Z,80.10
2018-11-26T18:32:41.073Z,80.10
2018-11-26T18:35:09.653Z,80.10
2018-11-26T18:37:38.206Z,80.10
2018-11-26T18:40:10.594Z,80.10
2018-11-26T18:42:39.113Z,80.10
2018-11-26T18:45:10.443Z,80.10
2018-11-26T18:47:38.977Z,80.10
2018-11-26T18:50:11.645Z,80.10
2018-11-26T18:52:40.232Z,80.10
2018-11-26T18:55:09.718Z,80.80
2018-11-26T18:57:38.249Z,79.70
2018-11-26T19:00:17.573Z,79.70
2018-11-26T19:02:46.101Z,79.90
2018-11-26T19:05:15.369Z,79.90
2018-11-26T19:07:43.961Z,79.80
2018-11-26T19:10:19.645Z,79.80
2018-11-26T19:12:50.065Z,79.80
2018-11-26T19:15:21.293Z,80.30
2018-11-26T19:17:50.749Z,80.10
2018-11-26T19:20:19.321Z,80.10
2018-11-26T19:22:47.841Z,80.20
2018-11-26T19:25:17.901Z,80.10
2018-11-26T19:27:46.407Z,80.00
2018-11-26T19:30:15.516Z,80.00
2018-11-26T19:32:44.924Z,80.10
2018-11-26T19:35:14.671Z,80.00
2018-11-26T19:37:43.241Z,80.10
2018-11-26T19:40:14.716Z,80.10
2018-11-26T19:42:45.269Z,80.10
2018-11-26T19:45:17.998Z,80.10
2018-11-26T19:47:46.637Z,80.00
2018-11-26T19:50:18.186Z,80.00
2018-11-26T19:52:48.062Z,80.00
2018-11-26T19:55:19.505Z,80.90
2018-11-26T19:57:48.084Z,80.00
2018-11-26T20:00:18.914Z,80.00
2018-11-26T20:02:49.231Z,80.10
2018-11-26T20:05:24.702Z,80.20
2018-11-26T20:07:53.270Z,80.20
2018-11-26T20:10:21.898Z,80.20
2018-11-26T20:12:50.714Z,80.10
2018-11-26T20:15:19.273Z,80.20
2018-11-26T20:17:47.784Z,80.30
2018-11-26T20:20:16.312Z,80.30
2018-11-26T20:22:44.924Z,80.30
2018-11-26T20:25:14.256Z,80.30
2018-11-26T20:27:43.191Z,80.30
2018-11-26T20:30:13.144Z,80.40
2018-11-26T20:32:44.959Z,80.30
2018-11-26T20:35:13.558Z,80.30
2018-11-26T20:37:42.090Z,80.30
2018-11-26T20:40:13.866Z,80.00
2018-11-26T20:42:54.462Z,80.40
2018-11-26T20:45:23.007Z,80.50
2018-11-26T20:47:52.378Z,79.80
2018-11-26T20:50:25.334Z,80.50
2018-11-26T20:52:53.861Z,80.50
2018-11-26T20:55:23.448Z,80.50
2018-11-26T20:57:53.057Z,80.70
2018-11-26T21:00:22.782Z,80.70
2018-11-26T21:02:53.415Z,80.70
2018-11-26T21:05:21.981Z,80.70
2018-11-26T21:07:50.539Z,80.80
2018-11-26T21:10:19.042Z,80.80
2018-11-26T21:12:47.537Z,80.90
2018-11-26T21:15:17.361Z,80.90
2018-11-26T21:17:50.211Z,80.90
2018-11-26T21:20:24.379Z,81.00
2018-11-26T21:22:52.899Z,80.80
2018-11-26T21:25:21.514Z,80.90
2018-11-26T21:27:50.015Z,80.90
2018-11-26T21:30:19.358Z,80.80
2018-11-26T21:32:47.934Z,80.90
2018-11-26T21:35:18.484Z,81.00
2018-11-26T21:37:48.370Z,81.00
2018-11-26T21:40:23.319Z,81.10
2018-11-26T21:42:51.926Z,81.10
2018-11-26T21:45:28.830Z,81.10
2018-11-26T21:47:57.330Z,81.10
2018-11-26T21:50:25.820Z,81.20
2018-11-26T21:52:54.335Z,81.10
2018-11-26T21:55:22.853Z,81.10
2018-11-26T21:57:51.326Z,81.10
2018-11-26T22:00:22.266Z,81.10
2018-11-26T22:02:51.345Z,81.00
2018-11-26T22:05:20.158Z,81.00
2018-11-26T22:07:48.681Z,81.00
2018-11-26T22:10:19.399Z,81.00
2018-11-26T22:12:49.201Z,81.10
2018-11-26T22:15:17.738Z,81.10
2018-11-26T22:17:46.209Z,81.00
2018-11-26T22:20:30.567Z,81.10
2018-11-26T22:22:59.087Z,81.10
2018-11-26T22:25:27.590Z,81.10
2018-11-26T22:27:56.117Z,81.00
2018-11-26T22:30:27.881Z,81.00
2018-11-26T22:32:56.422Z,89.80
2018-11-26T22:35:24.929Z,80.90
2018-11-26T22:37:53.421Z,80.80
2018-11-26T22:40:23.053Z,80.50
2018-11-26T22:42:51.638Z,80.40
2018-11-26T22:45:26.598Z,80.40
2018-11-26T22:47:59.257Z,80.20
2018-11-26T22:50:27.794Z,80.00
2018-11-26T22:52:56.289Z,79.90
2018-11-26T22:55:24.765Z,79.30
2018-11-26T22:57:53.238Z,79.90
2018-11-26T23:00:23.701Z,79.70
2018-11-26T23:02:53.609Z,79.70
2018-11-26T23:05:22.114Z,79.70
2018-11-26T23:07:50.605Z,79.60
2018-11-26T23:10:19.477Z,79.60
2018-11-26T23:12:48.000Z,79.70
2018-11-26T23:15:16.836Z,79.70
2018-11-26T23:17:46.019Z,79.60
2018-11-26T23:20:15.468Z,79.50
2018-11-26T23:22:43.992Z,79.40
2018-11-26T23:25:14.501Z,79.40
2018-11-26T23:27:43.117Z,79.30
2018-11-26T23:30:21.451Z,79.30
2018-11-26T23:32:52.317Z,79.30
2018-11-26T23:35:20.821Z,79.30
2018-11-26T23:37:49.425Z,79.40
2018-11-26T23:40:17.936Z,79.50
2018-11-26T23:42:46.469Z,79.50
2018-11-26T23:45:19.972Z,79.40
2018-11-26T23:47:48.473Z,80.20
2018-11-26T23:50:17.524Z,79.40
2018-11-26T23:52:46.396Z,79.30
2018-11-26T23:55:16.956Z,79.20
2018-11-26T23:57:45.479Z,79.20
